createdAt,value
2023-02-05T00:00:30.317Z,95.12
2023-02-05T00:01:30.274Z,95.12
2023-02-05T00:02:30.254Z,95.22
2023-02-05T00:03:30.155Z,95.22
2023-02-05T00:04:30.084Z,95.22
2023-02-05T00:05:30.013Z,94.93
2023-02-05T00:06:29.952Z,95.22
2023-02-05T00:07:29.885Z,95.22
2023-02-05T00:08:29.830Z,95.22
2023-02-05T00:09:29.763Z,95.12
2023-02-05T00:10:29.704Z,95.22
2023-02-05T00:11:29.650Z,95.12
2023-02-05T00:12:29.589Z,95.03
2023-02-05T00:13:29.530Z,95.12
2023-02-05T00:14:29.468Z,95.22
2023-02-05T00:15:29.407Z,94.84
2023-02-05T00:16:29.350Z,95.41
2023-02-05T00:17:29.291Z,95.22
2023-02-05T00:18:29.220Z,95.32
2023-02-05T00:19:29.165Z,95.22
2023-02-05T00:20:29.104Z,95.32
2023-02-05T00:21:29.039Z,95.12
2023-02-05T00:22:28.982Z,95.22
2023-02-05T00:23:28.936Z,95.03
2023-02-05T00:24:28.856Z,94.93
2023-02-05T00:25:28.797Z,95.12
2023-02-05T00:26:28.738Z,94.93
2023-02-05T00:27:28.686Z,94.93
2023-02-05T00:28:28.618Z,94.93
2023-02-05T00:29:28.572Z,94.93
2023-02-05T00:30:28.546Z,95.12
2023-02-05T00:31:28.564Z,94.93
2023-02-05T00:32:28.369Z,95.32
2023-02-05T00:33:28.334Z,95.22
2023-02-05T00:34:28.250Z,95.22
2023-02-05T00:35:28.200Z,95.22
2023-02-05T00:36:28.128Z,95.22
2023-02-05T00:37:28.074Z,95.22
2023-02-05T00:38:28.008Z,95.12
2023-02-05T00:39:27.945Z,95.22
2023-02-05T00:40:27.881Z,95.22
2023-02-05T00:41:27.827Z,95.03
2023-02-05T00:42:27.760Z,95.12
2023-02-05T00:43:27.711Z,95.22
2023-02-05T00:44:27.638Z,95.12
2023-02-05T00:45:27.579Z,95.12
2023-02-05T00:46:27.573Z,95.12
2023-02-05T00:47:27.460Z,95.22
2023-02-05T00:48:27.396Z,95.22
2023-02-05T00:49:27.340Z,95.22
2023-02-05T00:50:27.280Z,95.22
2023-02-05T00:51:27.219Z,94.93
2023-02-05T00:52:27.174Z,95.12
2023-02-05T00:53:27.096Z,94.93
2023-02-05T00:54:27.041Z,95.03
2023-02-05T00:55:26.992Z,95.51
2023-02-05T00:56:26.916Z,95.51
2023-02-05T00:57:26.858Z,94.84
2023-02-05T00:58:26.819Z,95.60
2023-02-05T00:59:26.735Z,95.60
2023-02-05T01:00:26.668Z,95.51
2023-02-05T01:01:26.821Z,95.60
2023-02-05T01:02:26.566Z,95.60
2023-02-05T01:03:26.605Z,95.70
2023-02-05T01:04:26.425Z,95.32
2023-02-05T01:05:26.367Z,95.41
2023-02-05T01:06:26.306Z,95.70
2023-02-05T01:07:26.255Z,95.70
2023-02-05T01:08:26.187Z,95.70
2023-02-05T01:09:26.132Z,95.70
2023-02-05T01:10:26.070Z,95.70
2023-02-05T01:11:26.009Z,95.70
2023-02-05T01:12:25.967Z,95.89
2023-02-05T01:13:25.886Z,95.89
2023-02-05T01:14:25.823Z,96.08
2023-02-05T01:15:25.773Z,95.89
2023-02-05T01:16:25.704Z,95.89
2023-02-05T01:17:25.659Z,95.98
2023-02-05T01:18:25.585Z,95.70
2023-02-05T01:19:25.525Z,95.70
2023-02-05T01:20:25.468Z,95.60
2023-02-05T01:21:25.404Z,95.22
2023-02-05T01:22:25.342Z,95.51
2023-02-05T01:23:25.291Z,95.22
2023-02-05T01:24:25.218Z,95.70
2023-02-05T01:25:25.165Z,95.51
2023-02-05T01:26:25.102Z,95.12
2023-02-05T01:27:25.037Z,95.70
2023-02-05T01:28:24.983Z,95.60
2023-02-05T01:29:24.923Z,95.51
2023-02-05T01:30:24.861Z,95.70
2023-02-05T01:31:24.904Z,95.70
2023-02-05T01:32:24.733Z,95.70
2023-02-05T01:33:24.681Z,95.60
2023-02-05T01:34:24.639Z,95.41
2023-02-05T01:35:24.556Z,95.51
2023-02-05T01:36:24.493Z,95.70
2023-02-05T01:37:24.439Z,95.70
2023-02-05T01:38:24.372Z,95.70
2023-02-05T01:39:24.323Z,95.51
2023-02-05T01:40:24.255Z,95.60
2023-02-05T01:41:24.187Z,95.60
2023-02-05T01:42:24.128Z,95.60
2023-02-05T01:43:24.069Z,95.70
2023-02-05T01:44:24.001Z,94.84
2023-02-05T01:45:23.938Z,95.60
2023-02-05T01:46:23.952Z,95.60
2023-02-05T01:47:23.833Z,95.79
2023-02-05T01:48:23.773Z,95.60
2023-02-05T01:49:23.702Z,95.60
2023-02-05T01:50:23.639Z,95.51
2023-02-05T01:51:23.579Z,95.60
2023-02-05T01:52:23.574Z,95.60
2023-02-05T01:53:23.453Z,95.60
2023-02-05T01:54:23.390Z,95.60
2023-02-05T01:55:23.330Z,95.60
2023-02-05T01:56:23.273Z,95.22
2023-02-05T01:57:23.213Z,95.12
2023-02-05T01:58:23.145Z,95.22
2023-02-05T01:59:23.092Z,95.22
2023-02-05T02:00:23.031Z,94.93
2023-02-05T02:01:23.021Z,94.93
2023-02-05T02:02:22.902Z,95.03
2023-02-05T02:03:22.855Z,95.03
2023-02-05T02:04:22.783Z,94.93
2023-02-05T02:05:22.766Z,95.12
2023-02-05T02:06:22.665Z,95.22
2023-02-05T02:07:22.615Z,95.12
2023-02-05T02:08:22.544Z,95.22
2023-02-05T02:09:22.479Z,95.22
2023-02-05T02:10:22.420Z,94.93
2023-02-05T02:11:22.362Z,94.93
2023-02-05T02:12:22.303Z,94.93
2023-02-05T02:13:22.245Z,95.32
2023-02-05T02:14:22.177Z,95.22
2023-02-05T02:15:22.128Z,95.03
2023-02-05T02:16:22.129Z,95.12
2023-02-05T02:17:22.001Z,95.12
2023-02-05T02:18:21.938Z,95.12
2023-02-05T02:19:21.884Z,95.22
2023-02-05T02:20:21.817Z,94.93
2023-02-05T02:21:21.759Z,95.22
2023-02-05T02:22:36.441Z,95.03
2023-02-05T02:23:21.635Z,95.12
2023-02-05T02:24:21.573Z,95.03
2023-02-05T02:25:21.518Z,95.03
2023-02-05T02:26:21.447Z,95.12
2023-02-05T02:27:21.404Z,95.32
2023-02-05T02:28:21.328Z,95.32
2023-02-05T02:29:21.268Z,95.22
2023-02-05T02:30:21.329Z,95.32
2023-02-05T02:31:21.159Z,95.22
2023-02-05T02:32:21.087Z,94.84
2023-02-05T02:33:21.035Z,95.22
2023-02-05T02:34:20.964Z,95.12
2023-02-05T02:35:20.922Z,94.84
2023-02-05T02:36:20.847Z,95.12
2023-02-05T02:37:20.780Z,95.32
2023-02-05T02:38:20.715Z,95.32
2023-02-05T02:39:20.663Z,95.32
2023-02-05T02:40:20.596Z,95.03
2023-02-05T02:41:20.543Z,95.41
2023-02-05T02:42:35.454Z,95.03
2023-02-05T02:43:20.416Z,95.41
2023-02-05T02:44:20.359Z,95.22
2023-02-05T02:45:20.351Z,95.22
2023-02-05T02:46:20.260Z,95.60
2023-02-05T02:47:20.187Z,95.32
2023-02-05T02:48:20.125Z,94.93
2023-02-05T02:49:20.058Z,95.41
2023-02-05T02:50:19.999Z,94.84
2023-02-05T02:51:19.947Z,94.93
2023-02-05T02:52:19.873Z,94.74
2023-02-05T02:53:19.819Z,94.93
2023-02-05T02:54:19.759Z,95.03
2023-02-05T02:55:19.693Z,95.22
2023-02-05T02:56:19.638Z,95.22
2023-02-05T02:57:19.570Z,95.22
2023-02-05T02:58:19.514Z,95.32
2023-02-05T02:59:19.451Z,95.32
2023-02-05T03:00:19.397Z,95.22
2023-02-05T03:01:19.339Z,95.32
2023-02-05T03:02:19.267Z,95.32
2023-02-05T03:03:19.208Z,95.03
2023-02-05T03:04:19.151Z,95.12
2023-02-05T03:05:19.089Z,95.32
2023-02-05T03:06:19.962Z,95.22
2023-02-05T03:07:18.982Z,95.32
2023-02-05T03:08:18.906Z,94.84
2023-02-05T03:09:18.859Z,95.32
2023-02-05T03:10:18.788Z,95.22
2023-02-05T03:11:18.731Z,95.03
2023-02-05T03:12:18.662Z,95.12
2023-02-05T03:13:18.604Z,95.32
2023-02-05T03:14:18.546Z,95.41
2023-02-05T03:15:18.490Z,95.32
2023-02-05T03:16:18.470Z,95.41
2023-02-05T03:17:18.362Z,95.41
2023-02-05T03:18:18.303Z,95.12
2023-02-05T03:19:18.241Z,95.32
2023-02-05T03:20:18.179Z,95.22
2023-02-05T03:21:18.118Z,95.03
2023-02-05T03:22:18.054Z,95.03
2023-02-05T03:23:18.008Z,95.03
2023-02-05T03:24:17.935Z,95.12
2023-02-05T03:25:17.870Z,95.12
2023-02-05T03:26:17.811Z,95.03
2023-02-05T03:27:17.752Z,95.12
2023-02-05T03:28:17.693Z,95.22
2023-02-05T03:29:17.650Z,95.03
2023-02-05T03:30:17.579Z,95.03
2023-02-05T03:31:17.578Z,95.22
2023-02-05T03:32:17.449Z,95.32
2023-02-05T03:33:17.390Z,95.22
2023-02-05T03:34:17.330Z,95.22
2023-02-05T03:35:17.263Z,94.74
2023-02-05T03:36:17.219Z,94.93
2023-02-05T03:37:17.149Z,95.32
2023-02-05T03:38:17.082Z,94.93
2023-02-05T03:39:17.032Z,94.93
2023-02-05T03:40:16.960Z,95.03
2023-02-05T03:41:16.897Z,95.12
2023-02-05T03:42:16.847Z,95.12
2023-02-05T03:43:16.776Z,95.03
2023-02-05T03:44:16.717Z,94.93
2023-02-05T03:45:16.665Z,94.93
2023-02-05T03:46:16.596Z,95.22
2023-02-05T03:47:16.543Z,95.32
2023-02-05T03:48:16.476Z,95.22
2023-02-05T03:49:16.420Z,95.22
2023-02-05T03:50:16.358Z,95.32
2023-02-05T03:51:16.296Z,94.74
2023-02-05T03:52:16.230Z,94.74
2023-02-05T03:53:16.171Z,95.03
2023-02-05T03:54:16.111Z,94.84
2023-02-05T03:55:16.055Z,94.65
2023-02-05T03:56:15.993Z,94.93
2023-02-05T03:57:15.931Z,94.93
2023-02-05T03:58:15.862Z,95.03
2023-02-05T03:59:15.807Z,95.22
2023-02-05T04:00:15.760Z,95.22
2023-02-05T04:01:15.835Z,95.32
2023-02-05T04:02:30.536Z,95.22
2023-02-05T04:03:15.565Z,95.22
2023-02-05T04:04:15.503Z,95.03
2023-02-05T04:05:15.437Z,95.22
2023-02-05T04:06:15.375Z,95.22
2023-02-05T04:07:15.312Z,95.32
2023-02-05T04:08:15.251Z,94.74
2023-02-05T04:09:15.201Z,94.84
2023-02-05T04:10:15.132Z,94.93
2023-02-05T04:11:15.080Z,94.74
2023-02-05T04:12:15.012Z,94.84
2023-02-05T04:13:14.946Z,94.84
2023-02-05T04:14:14.888Z,94.93
2023-02-05T04:15:14.842Z,94.84
2023-02-05T04:16:14.789Z,94.93
2023-02-05T04:17:14.703Z,94.93
2023-02-05T04:18:14.647Z,94.93
2023-02-05T04:19:14.586Z,95.22
2023-02-05T04:20:14.534Z,95.22
2023-02-05T04:21:14.465Z,94.93
2023-02-05T04:22:14.403Z,94.93
2023-02-05T04:23:14.380Z,94.93
2023-02-05T04:24:14.295Z,94.93
2023-02-05T04:25:14.219Z,94.93
2023-02-05T04:26:14.180Z,95.03
2023-02-05T04:27:14.103Z,95.12
2023-02-05T04:28:14.136Z,95.12
2023-02-05T04:29:13.976Z,95.12
2023-02-05T04:30:13.924Z,95.22
2023-02-05T04:31:13.854Z,95.41
2023-02-05T04:32:13.794Z,95.03
2023-02-05T04:33:13.740Z,95.12
2023-02-05T04:34:13.686Z,95.12
2023-02-05T04:35:13.617Z,95.22
2023-02-05T04:36:13.559Z,95.03
2023-02-05T04:37:13.491Z,95.12
2023-02-05T04:38:13.432Z,95.03
2023-02-05T04:39:13.386Z,94.93
2023-02-05T04:40:13.312Z,94.27
2023-02-05T04:41:13.258Z,94.65
2023-02-05T04:42:13.196Z,94.84
2023-02-05T04:43:13.148Z,94.74
2023-02-05T04:44:13.073Z,95.51
2023-02-05T04:45:13.009Z,95.51
2023-02-05T04:46:12.984Z,95.41
2023-02-05T04:47:12.886Z,94.27
2023-02-05T04:48:12.832Z,94.84
2023-02-05T04:49:12.762Z,95.32
2023-02-05T04:50:12.725Z,95.41
2023-02-05T04:51:12.642Z,95.12
2023-02-05T04:52:12.583Z,95.12
2023-02-05T04:53:12.521Z,95.41
2023-02-05T04:54:12.462Z,95.41
2023-02-05T04:55:12.397Z,95.22
2023-02-05T04:56:12.341Z,95.32
2023-02-05T04:57:12.982Z,95.12
2023-02-05T04:58:12.217Z,95.03
2023-02-05T04:59:12.170Z,94.93
2023-02-05T05:00:12.100Z,94.93
2023-02-05T05:01:12.072Z,94.46
2023-02-05T05:02:12.014Z,95.22
2023-02-05T05:03:11.911Z,95.03
2023-02-05T05:04:11.858Z,95.22
2023-02-05T05:05:11.800Z,95.22
2023-02-05T05:06:11.738Z,95.32
2023-02-05T05:07:11.670Z,94.84
2023-02-05T05:08:11.614Z,94.84
2023-02-05T05:09:11.550Z,95.51
2023-02-05T05:10:17.986Z,95.41
2023-02-05T05:11:11.432Z,94.37
2023-02-05T05:12:11.370Z,94.84
2023-02-05T05:13:11.310Z,95.32
2023-02-05T05:14:11.253Z,95.41
2023-02-05T05:15:11.195Z,95.22
2023-02-05T05:16:11.182Z,95.22
2023-02-05T05:17:11.063Z,95.32
2023-02-05T05:18:10.999Z,94.56
2023-02-05T05:19:10.938Z,95.22
2023-02-05T05:20:10.891Z,94.37
2023-02-05T05:21:10.820Z,95.12
2023-02-05T05:22:10.767Z,95.03
2023-02-05T05:23:10.701Z,95.22
2023-02-05T05:24:10.646Z,95.12
2023-02-05T05:25:10.578Z,95.12
2023-02-05T05:26:10.512Z,95.12
2023-02-05T05:27:10.451Z,95.03
2023-02-05T05:28:10.442Z,94.56
2023-02-05T05:29:10.337Z,94.46
2023-02-05T05:30:10.277Z,95.22
2023-02-05T05:31:10.281Z,94.46
2023-02-05T05:32:10.195Z,94.84
2023-02-05T05:33:10.089Z,94.56
2023-02-05T05:34:10.031Z,94.46
2023-02-05T05:35:09.971Z,94.46
2023-02-05T05:36:09.907Z,94.84
2023-02-05T05:37:09.845Z,94.65
2023-02-05T05:38:09.785Z,94.56
2023-02-05T05:39:09.727Z,94.65
2023-02-05T05:40:09.671Z,94.65
2023-02-05T05:41:09.604Z,94.65
2023-02-05T05:42:09.548Z,94.65
2023-02-05T05:43:09.481Z,94.56
2023-02-05T05:44:09.422Z,94.65
2023-02-05T05:45:09.362Z,94.46
2023-02-05T05:46:09.324Z,94.65
2023-02-05T05:47:09.243Z,94.46
2023-02-05T05:48:09.173Z,94.74
2023-02-05T05:49:09.123Z,94.65
2023-02-05T05:50:09.060Z,94.37
2023-02-05T05:51:08.995Z,94.84
2023-02-05T05:52:08.942Z,94.74
2023-02-05T05:53:08.872Z,94.56
2023-02-05T05:54:08.820Z,94.46
2023-02-05T05:55:08.750Z,94.65
2023-02-05T05:56:08.695Z,94.65
2023-02-05T05:57:08.629Z,94.74
2023-02-05T05:58:08.562Z,94.74
2023-02-05T05:59:08.504Z,94.84
2023-02-05T06:00:08.448Z,94.65
2023-02-05T06:01:08.385Z,94.56
2023-02-05T06:02:08.393Z,94.65
2023-02-05T06:03:08.269Z,94.74
2023-02-05T06:04:08.201Z,94.56
2023-02-05T06:05:08.136Z,94.56
2023-02-05T06:06:08.080Z,94.56
2023-02-05T06:07:08.016Z,94.65
2023-02-05T06:08:07.951Z,94.56
2023-02-05T06:09:07.890Z,94.74
2023-02-05T06:10:07.835Z,94.93
2023-02-05T06:11:07.789Z,94.56
2023-02-05T06:12:07.713Z,94.84
2023-02-05T06:13:07.652Z,94.74
2023-02-05T06:14:07.587Z,94.84
2023-02-05T06:15:07.538Z,94.74
2023-02-05T06:16:07.533Z,94.93
2023-02-05T06:17:07.433Z,94.74
2023-02-05T06:18:07.341Z,94.74
2023-02-05T06:19:07.301Z,94.46
2023-02-05T06:20:07.222Z,94.93
2023-02-05T06:21:07.163Z,94.56
2023-02-05T06:22:07.101Z,94.84
2023-02-05T06:23:07.040Z,94.84
2023-02-05T06:24:06.984Z,94.74
2023-02-05T06:25:06.918Z,94.74
2023-02-05T06:26:06.865Z,94.27
2023-02-05T06:27:06.797Z,94.27
2023-02-05T06:28:06.802Z,94.65
2023-02-05T06:29:06.688Z,94.46
2023-02-05T06:30:06.620Z,94.74
2023-02-05T06:31:06.648Z,94.56
2023-02-05T06:32:06.496Z,94.27
2023-02-05T06:33:06.430Z,94.46
2023-02-05T06:34:06.371Z,94.37
2023-02-05T06:35:06.322Z,94.32
2023-02-05T06:36:06.288Z,94.37
2023-02-05T06:37:06.186Z,94.46
2023-02-05T06:38:06.132Z,94.27
2023-02-05T06:39:06.066Z,94.18
2023-02-05T06:40:06.006Z,94.37
2023-02-05T06:41:05.946Z,94.27
2023-02-05T06:42:05.886Z,94.56
2023-02-05T06:43:05.824Z,94.56
2023-02-05T06:44:05.760Z,94.56
2023-02-05T06:45:05.698Z,94.65
2023-02-05T06:46:05.640Z,94.37
2023-02-05T06:47:05.581Z,94.42
2023-02-05T06:48:05.518Z,94.65
2023-02-05T06:49:05.454Z,94.27
2023-02-05T06:50:05.393Z,94.46
2023-02-05T06:51:05.341Z,94.27
2023-02-05T06:52:05.279Z,94.27
2023-02-05T06:53:05.210Z,94.27
2023-02-05T06:54:05.157Z,94.46
2023-02-05T06:55:05.091Z,94.27
2023-02-05T06:56:05.029Z,94.37
2023-02-05T06:57:04.984Z,94.46
2023-02-05T06:58:04.907Z,94.56
2023-02-05T06:59:04.847Z,94.18
2023-02-05T07:00:04.791Z,94.56
2023-02-05T07:01:04.729Z,94.65
2023-02-05T07:02:04.668Z,94.65
2023-02-05T07:03:05.526Z,94.74
2023-02-05T07:04:04.544Z,94.74
2023-02-05T07:05:04.484Z,94.56
2023-02-05T07:06:04.433Z,94.74
2023-02-05T07:07:04.376Z,94.65
2023-02-05T07:08:04.301Z,94.65
2023-02-05T07:09:04.242Z,94.46
2023-02-05T07:10:04.184Z,94.56
2023-02-05T07:11:04.123Z,94.46
2023-02-05T07:12:04.067Z,94.56
2023-02-05T07:13:05.851Z,94.56
2023-02-05T07:14:03.939Z,94.93
2023-02-05T07:15:03.881Z,94.84
2023-02-05T07:16:03.846Z,94.56
2023-02-05T07:17:03.763Z,94.93
2023-02-05T07:18:03.702Z,94.56
2023-02-05T07:19:03.631Z,94.56
2023-02-05T07:20:03.577Z,94.65
2023-02-05T07:21:03.510Z,94.46
2023-02-05T07:22:03.450Z,94.65
2023-02-05T07:23:03.396Z,94.65
2023-02-05T07:24:03.328Z,94.46
2023-02-05T07:25:04.597Z,94.60
2023-02-05T07:26:03.204Z,94.56
2023-02-05T07:27:03.145Z,94.60
2023-02-05T07:28:03.135Z,94.65
2023-02-05T07:29:03.038Z,94.65
2023-02-05T07:30:02.960Z,94.56
2023-02-05T07:31:02.976Z,95.22
2023-02-05T07:32:02.928Z,95.03
2023-02-05T07:33:02.783Z,95.12
2023-02-05T07:34:02.717Z,95.12
2023-02-05T07:35:02.660Z,95.17
2023-02-05T07:36:02.598Z,95.22
2023-02-05T07:37:02.588Z,94.98
2023-02-05T07:38:02.493Z,95.32
2023-02-05T07:39:02.426Z,95.12
2023-02-05T07:40:02.351Z,95.12
2023-02-05T07:41:02.288Z,95.17
2023-02-05T07:42:02.236Z,95.08
2023-02-05T07:43:02.174Z,95.08
2023-02-05T07:44:02.103Z,95.32
2023-02-05T07:45:09.020Z,95.32
2023-02-05T07:46:01.982Z,95.27
2023-02-05T07:47:01.923Z,95.27
2023-02-05T07:48:01.860Z,95.08
2023-02-05T07:49:01.798Z,95.08
2023-02-05T07:50:01.736Z,95.41
2023-02-05T07:51:01.681Z,95.12
2023-02-05T07:52:01.612Z,95.60
2023-02-05T07:53:01.584Z,95.41
2023-02-05T07:54:01.502Z,95.22
2023-02-05T07:55:01.460Z,94.37
2023-02-05T07:56:01.375Z,95.41
2023-02-05T07:57:01.321Z,95.41
2023-02-05T07:58:01.252Z,95.03
2023-02-05T07:59:01.184Z,95.32
2023-02-05T08:00:01.128Z,94.93
2023-02-05T08:01:01.195Z,95.03
2023-02-05T08:02:01.012Z,95.03
2023-02-05T08:03:00.946Z,95.32
2023-02-05T08:04:00.925Z,95.03
2023-02-05T08:05:00.825Z,95.32
2023-02-05T08:06:00.757Z,95.32
2023-02-05T08:07:00.704Z,94.98
2023-02-05T08:08:00.652Z,94.84
2023-02-05T08:09:00.581Z,95.32
2023-02-05T08:10:00.529Z,94.84
2023-02-05T08:11:00.470Z,94.84
2023-02-05T08:12:00.403Z,94.98
2023-02-05T08:13:00.333Z,94.46
2023-02-05T08:14:00.272Z,94.93
2023-02-05T08:15:03.035Z,94.79
2023-02-05T08:16:00.188Z,95.41
2023-02-05T08:17:00.099Z,95.41
2023-02-05T08:18:00.030Z,94.84
2023-02-05T08:18:59.981Z,94.46
2023-02-05T08:19:59.903Z,94.37
2023-02-05T08:20:59.846Z,94.84
2023-02-05T08:21:59.789Z,94.56
2023-02-05T08:22:59.724Z,95.41
2023-02-05T08:23:59.660Z,95.41
2023-02-05T08:24:59.602Z,94.79
2023-02-05T08:25:59.537Z,95.51
2023-02-05T08:26:59.487Z,94.23
2023-02-05T08:27:59.445Z,94.42
2023-02-05T08:28:59.360Z,94.60
2023-02-05T08:29:59.294Z,95.22
2023-02-05T08:30:59.294Z,94.42
2023-02-05T08:31:59.240Z,95.51
2023-02-05T08:32:59.119Z,95.41
2023-02-05T08:33:59.050Z,94.46
2023-02-05T08:34:59.002Z,94.27
2023-02-05T08:35:58.930Z,95.12
2023-02-05T08:36:58.881Z,94.74
2023-02-05T08:37:58.808Z,94.74
2023-02-05T08:38:58.748Z,94.93
2023-02-05T08:39:58.683Z,95.03
2023-02-05T08:40:58.633Z,95.03
2023-02-05T08:41:58.566Z,95.12
2023-02-05T08:42:58.516Z,95.12
2023-02-05T08:43:58.454Z,95.03
2023-02-05T08:44:58.424Z,95.03
2023-02-05T08:45:58.354Z,95.12
2023-02-05T08:46:58.268Z,94.70
2023-02-05T08:47:58.199Z,94.93
2023-02-05T08:48:58.148Z,94.93
2023-02-05T08:49:58.076Z,94.84
2023-02-05T08:50:58.020Z,94.84
2023-02-05T08:51:57.951Z,94.84
2023-02-05T08:52:57.892Z,94.89
2023-02-05T08:53:57.835Z,95.32
2023-02-05T08:54:57.774Z,95.32
2023-02-05T08:55:57.714Z,95.03
2023-02-05T08:56:57.652Z,95.08
2023-02-05T08:57:57.589Z,95.41
2023-02-05T08:58:57.558Z,95.36
2023-02-05T08:59:57.465Z,95.32
2023-02-05T09:00:57.420Z,95.03
2023-02-05T09:01:57.342Z,95.12
2023-02-05T09:02:57.289Z,95.32
2023-02-05T09:03:57.229Z,95.32
2023-02-05T09:05:07.954Z,95.03
2023-02-05T09:05:57.101Z,94.98
2023-02-05T09:06:57.047Z,95.22
2023-02-05T09:07:56.981Z,95.22
2023-02-05T09:08:56.921Z,95.03
2023-02-05T09:09:56.857Z,95.03
2023-02-05T09:10:56.794Z,94.93
2023-02-05T09:11:56.739Z,94.93
2023-02-05T09:12:56.676Z,95.03
2023-02-05T09:13:56.613Z,94.93
2023-02-05T09:14:56.557Z,94.93
2023-02-05T09:15:56.487Z,95.41
2023-02-05T09:16:56.449Z,95.70
2023-02-05T09:17:56.373Z,94.93
2023-02-05T09:18:56.308Z,95.55
2023-02-05T09:19:56.259Z,95.60
2023-02-05T09:20:56.184Z,95.55
2023-02-05T09:21:56.131Z,95.65
2023-02-05T09:22:56.063Z,95.70
2023-02-05T09:23:56.007Z,95.51
2023-02-05T09:24:55.942Z,96.08
2023-02-05T09:25:55.888Z,95.98
2023-02-05T09:27:10.550Z,95.98
2023-02-05T09:27:55.774Z,95.94
2023-02-05T09:28:55.700Z,95.98
2023-02-05T09:29:55.660Z,95.79
2023-02-05T09:30:55.658Z,96.17
2023-02-05T09:31:55.514Z,95.79
2023-02-05T09:32:55.462Z,95.89
2023-02-05T09:33:55.402Z,95.84
2023-02-05T09:34:55.334Z,95.79
2023-02-05T09:35:55.280Z,95.79
2023-02-05T09:36:55.218Z,95.79
2023-02-05T09:37:55.153Z,95.70
2023-02-05T09:39:05.005Z,95.60
2023-02-05T09:40:22.265Z,95.60
2023-02-05T09:40:54.968Z,95.60
2023-02-05T09:41:54.913Z,95.70
2023-02-05T09:42:54.954Z,95.60
2023-02-05T09:43:54.788Z,96.08
2023-02-05T09:44:54.731Z,96.26
2023-02-05T09:45:54.687Z,95.98
2023-02-05T09:46:54.613Z,95.98
2023-02-05T09:47:54.554Z,95.98
2023-02-05T09:48:54.484Z,96.17
2023-02-05T09:49:54.423Z,96.17
2023-02-05T09:50:54.373Z,95.98
2023-02-05T09:51:54.302Z,96.26
2023-02-05T09:52:54.244Z,96.08
2023-02-05T09:53:54.175Z,95.98
2023-02-05T09:54:54.111Z,96.26
2023-02-05T09:55:54.056Z,96.26
2023-02-05T09:56:53.994Z,96.17
2023-02-05T09:57:53.931Z,96.17
2023-02-05T09:58:53.868Z,95.79
2023-02-05T09:59:53.808Z,96.17
2023-02-05T10:00:53.752Z,96.36
2023-02-05T10:01:53.686Z,96.36
2023-02-05T10:02:53.632Z,96.55
2023-02-05T10:03:53.577Z,96.26
2023-02-05T10:04:53.504Z,96.45
2023-02-05T10:05:53.446Z,96.26
2023-02-05T10:06:53.383Z,96.55
2023-02-05T10:07:53.314Z,96.55
2023-02-05T10:08:53.261Z,96.65
2023-02-05T10:09:53.196Z,96.17
2023-02-05T10:10:53.138Z,96.36
2023-02-05T10:11:53.079Z,96.55
2023-02-05T10:12:53.012Z,96.36
2023-02-05T10:13:52.952Z,96.36
2023-02-05T10:14:52.913Z,96.36
2023-02-05T10:15:52.933Z,96.36
2023-02-05T10:16:52.776Z,96.45
2023-02-05T10:17:52.723Z,96.36
2023-02-05T10:18:52.653Z,96.55
2023-02-05T10:19:52.589Z,96.26
2023-02-05T10:20:52.530Z,97.03
2023-02-05T10:21:52.459Z,96.74
2023-02-05T10:22:52.403Z,96.69
2023-02-05T10:24:13.330Z,96.93
2023-02-05T10:24:52.297Z,96.84
2023-02-05T10:25:52.223Z,97.12
2023-02-05T10:26:52.176Z,97.12
2023-02-05T10:27:52.112Z,96.93
2023-02-05T10:28:52.042Z,97.12
2023-02-05T10:29:51.977Z,97.12
2023-02-05T10:30:52.039Z,96.93
2023-02-05T10:31:51.948Z,96.93
2023-02-05T10:32:51.798Z,96.93
2023-02-05T10:33:51.745Z,97.22
2023-02-05T10:34:51.687Z,97.50
2023-02-05T10:35:51.617Z,97.31
2023-02-05T10:36:51.552Z,97.69
2023-02-05T10:37:51.494Z,97.45
2023-02-05T10:38:51.433Z,97.69
2023-02-05T10:39:51.366Z,97.88
2023-02-05T10:40:51.306Z,97.74
2023-02-05T10:41:51.243Z,97.69
2023-02-05T10:42:51.185Z,97.78
2023-02-05T10:43:51.131Z,97.69
2023-02-05T10:44:51.062Z,97.50
2023-02-05T10:45:50.999Z,97.60
2023-02-05T10:46:50.937Z,98.07
2023-02-05T10:47:50.886Z,97.78
2023-02-05T10:48:50.827Z,97.88
2023-02-05T10:49:50.764Z,97.88
2023-02-05T10:50:50.700Z,97.88
2023-02-05T10:51:50.640Z,97.78
2023-02-05T10:52:50.580Z,97.88
2023-02-05T10:53:50.512Z,97.97
2023-02-05T10:54:50.455Z,97.60
2023-02-05T10:55:50.399Z,97.97
2023-02-05T10:56:50.335Z,97.69
2023-02-05T10:57:50.271Z,97.60
2023-02-05T10:58:50.207Z,97.69
2023-02-05T10:59:50.149Z,97.60
2023-02-05T11:00:50.087Z,97.78
2023-02-05T11:01:50.068Z,97.60
2023-02-05T11:02:49.996Z,97.69
2023-02-05T11:03:49.906Z,97.69
2023-02-05T11:04:49.843Z,97.60
2023-02-05T11:05:49.786Z,97.69
2023-02-05T11:06:49.730Z,97.50
2023-02-05T11:07:49.662Z,97.50
2023-02-05T11:08:49.599Z,97.50
2023-02-05T11:10:17.128Z,97.88
2023-02-05T11:10:49.480Z,97.41
2023-02-05T11:11:49.420Z,98.07
2023-02-05T11:12:49.360Z,97.88
2023-02-05T11:13:49.292Z,97.97
2023-02-05T11:14:49.237Z,97.88
2023-02-05T11:15:49.189Z,97.78
2023-02-05T11:16:49.128Z,97.69
2023-02-05T11:17:49.050Z,97.69
2023-02-05T11:18:48.989Z,97.78
2023-02-05T11:19:48.926Z,97.60
2023-02-05T11:20:48.865Z,97.78
2023-02-05T11:21:48.807Z,97.88
2023-02-05T11:22:48.849Z,97.88
2023-02-05T11:23:48.680Z,97.78
2023-02-05T11:24:48.622Z,97.78
2023-02-05T11:25:48.681Z,97.88
2023-02-05T11:26:48.505Z,98.45
2023-02-05T11:27:48.439Z,98.64
2023-02-05T11:28:48.382Z,98.45
2023-02-05T11:29:48.317Z,98.45
2023-02-05T11:30:51.042Z,98.26
2023-02-05T11:31:48.300Z,98.07
2023-02-05T11:32:48.139Z,98.26
2023-02-05T11:33:48.075Z,98.26
2023-02-05T11:34:48.014Z,98.26
2023-02-05T11:35:47.951Z,98.26
2023-02-05T11:36:47.896Z,98.26
2023-02-05T11:37:47.920Z,98.07
2023-02-05T11:38:47.782Z,98.17
2023-02-05T11:39:47.710Z,98.26
2023-02-05T11:40:47.647Z,98.55
2023-02-05T11:41:47.586Z,98.55
2023-02-05T11:42:47.520Z,98.36
2023-02-05T11:43:47.467Z,98.64
2023-02-05T11:44:47.423Z,98.45
2023-02-05T11:45:47.352Z,98.64
2023-02-05T11:46:47.326Z,98.64
2023-02-05T11:47:47.220Z,98.26
2023-02-05T11:48:47.163Z,98.36
2023-02-05T11:49:47.102Z,98.74
2023-02-05T11:50:47.033Z,98.74
2023-02-05T11:51:46.984Z,98.64
2023-02-05T11:52:46.917Z,98.64
2023-02-05T11:53:46.856Z,98.45
2023-02-05T11:54:46.798Z,98.45
2023-02-05T11:55:46.733Z,98.74
2023-02-05T11:56:46.675Z,98.64
2023-02-05T11:57:46.665Z,98.64
2023-02-05T11:58:46.554Z,98.45
2023-02-05T11:59:46.492Z,98.93
2023-02-05T12:00:46.427Z,98.64
2023-02-05T12:01:46.440Z,98.83
2023-02-05T12:02:46.313Z,98.74
2023-02-05T12:03:46.246Z,98.55
2023-02-05T12:04:46.184Z,98.55
2023-02-05T12:05:46.123Z,98.64
2023-02-05T12:06:46.065Z,98.45
2023-02-05T12:07:46.009Z,99.21
2023-02-05T12:08:45.940Z,98.55
2023-02-05T12:09:45.882Z,98.55
2023-02-05T12:10:45.833Z,98.26
2023-02-05T12:11:45.763Z,99.21
2023-02-05T12:12:45.702Z,98.26
2023-02-05T12:13:45.755Z,98.26
2023-02-05T12:14:45.583Z,98.55
2023-02-05T12:15:45.524Z,99.21
2023-02-05T12:16:45.461Z,98.45
2023-02-05T12:17:45.402Z,99.02
2023-02-05T12:18:45.334Z,99.11
2023-02-05T12:19:45.272Z,99.11
2023-02-05T12:20:45.214Z,99.21
2023-02-05T12:21:45.156Z,99.11
2023-02-05T12:22:45.088Z,98.74
2023-02-05T12:23:45.029Z,99.21
2023-02-05T12:24:44.970Z,98.83
2023-02-05T12:25:44.911Z,99.02
2023-02-05T12:26:44.870Z,99.11
2023-02-05T12:27:44.804Z,98.74
2023-02-05T12:28:44.725Z,98.74
2023-02-05T12:29:44.667Z,98.74
2023-02-05T12:30:44.660Z,99.11
2023-02-05T12:31:44.585Z,99.02
2023-02-05T12:32:44.483Z,98.74
2023-02-05T12:33:44.421Z,99.11
2023-02-05T12:34:44.362Z,99.11
2023-02-05T12:35:44.300Z,98.93
2023-02-05T12:36:44.232Z,99.69
2023-02-05T12:37:44.176Z,99.88
2023-02-05T12:38:44.113Z,99.69
2023-02-05T12:39:44.055Z,98.93
2023-02-05T12:40:43.993Z,99.11
2023-02-05T12:41:43.932Z,99.30
2023-02-05T12:42:43.874Z,98.93
2023-02-05T12:43:43.809Z,99.11
2023-02-05T12:44:43.748Z,98.93
2023-02-05T12:45:43.693Z,99.11
2023-02-05T12:46:43.624Z,98.93
2023-02-05T12:47:43.566Z,99.69
2023-02-05T12:48:43.498Z,99.69
2023-02-05T12:49:45.023Z,99.88
2023-02-05T12:50:43.379Z,99.69
2023-02-05T12:51:43.320Z,99.50